sensor_id;sensor_type;location;lat;lon;timestamp;P1;durP1;ratioP1;P2;durP2;ratioP2
80541;SDS011;69870;51.460;8.842;2024-01-10T00:01:00;29.67;;;12.95;;
80541;SDS011;69870;51.460;8.842;2024-01-10T00:03:27;32.13;;;12.02;;
80541;SDS011;69870;51.460;8.842;2024-01-10T00:05:55;44.20;;;12.50;;
80541;SDS011;69870;51.460;8.842;2024-01-10T00:08:22;40.30;;;13.25;;
80541;SDS011;69870;51.460;8.842;2024-01-10T00:10:48;32.85;;;12.85;;
80541;SDS011;69870;51.460;8.842;2024-01-10T00:13:15;32.03;;;11.52;;
80541;SDS011;69870;51.460;8.842;2024-01-10T00:15:42;34.70;;;12.90;;
80541;SDS011;69870;51.460;8.842;2024-01-10T00:18:08;38.75;;;14.10;;
80541;SDS011;69870;51.460;8.842;2024-01-10T00:20:35;45.40;;;13.48;;
80541;SDS011;69870;51.460;8.842;2024-01-10T00:23:03;38.10;;;12.60;;
80541;SDS011;69870;51.460;8.842;2024-01-10T00:25:30;41.28;;;12.45;;
80541;SDS011;69870;51.460;8.842;2024-01-10T00:27:56;34.53;;;12.40;;
80541;SDS011;69870;51.460;8.842;2024-01-10T00:30:23;45.53;;;13.63;;
80541;SDS011;69870;51.460;8.842;2024-01-10T00:32:51;36.22;;;13.05;;
80541;SDS011;69870;51.460;8.842;2024-01-10T00:35:18;46.72;;;15.10;;
80541;SDS011;69870;51.460;8.842;2024-01-10T00:37:45;36.47;;;13.75;;
80541;SDS011;69870;51.460;8.842;2024-01-10T00:40:13;37.70;;;16.10;;
80541;SDS011;69870;51.460;8.842;2024-01-10T00:42:40;46.83;;;15.38;;
80541;SDS011;69870;51.460;8.842;2024-01-10T00:45:06;40.00;;;13.68;;
80541;SDS011;69870;51.460;8.842;2024-01-10T00:47:33;41.70;;;13.40;;
80541;SDS011;69870;51.460;8.842;2024-01-10T00:50:00;38.67;;;13.70;;
80541;SDS011;69870;51.460;8.842;2024-01-10T00:52:26;49.45;;;14.40;;
80541;SDS011;69870;51.460;8.842;2024-01-10T00:54:53;35.40;;;13.77;;
80541;SDS011;69870;51.460;8.842;2024-01-10T00:57:21;38.78;;;12.80;;
80541;SDS011;69870;51.460;8.842;2024-01-10T00:59:48;33.80;;;13.65;;
80541;SDS011;69870;51.460;8.842;2024-01-10T01:02:14;46.22;;;14.52;;
80541;SDS011;69870;51.460;8.842;2024-01-10T01:04:41;38.70;;;13.80;;
80541;SDS011;69870;51.460;8.842;2024-01-10T01:07:07;35.75;;;12.40;;
80541;SDS011;69870;51.460;8.842;2024-01-10T01:09:34;29.33;;;11.73;;
80541;SDS011;69870;51.460;8.842;2024-01-10T01:12:00;40.17;;;14.30;;
80541;SDS011;69870;51.460;8.842;2024-01-10T01:14:29;41.28;;;12.35;;
80541;SDS011;69870;51.460;8.842;2024-01-10T01:16:55;37.90;;;11.98;;
80541;SDS011;69870;51.460;8.842;2024-01-10T01:19:22;37.97;;;13.20;;
80541;SDS011;69870;51.460;8.842;2024-01-10T01:21:48;34.33;;;11.80;;
80541;SDS011;69870;51.460;8.842;2024-01-10T01:24:15;36.83;;;12.55;;
80541;SDS011;69870;51.460;8.842;2024-01-10T01:26:41;43.75;;;12.32;;
80541;SDS011;69870;51.460;8.842;2024-01-10T01:29:09;34.38;;;11.85;;
80541;SDS011;69870;51.460;8.842;2024-01-10T01:31:37;48.33;;;15.60;;
80541;SDS011;69870;51.460;8.842;2024-01-10T01:34:03;31.38;;;11.57;;
80541;SDS011;69870;51.460;8.842;2024-01-10T01:36:30;31.83;;;12.18;;
80541;SDS011;69870;51.460;8.842;2024-01-10T01:38:56;36.78;;;11.50;;
80541;SDS011;69870;51.460;8.842;2024-01-10T01:41:23;33.15;;;10.88;;
80541;SDS011;69870;51.460;8.842;2024-01-10T01:43:49;34.58;;;12.95;;
80541;SDS011;69870;51.460;8.842;2024-01-10T01:46:16;36.58;;;11.60;;
80541;SDS011;69870;51.460;8.842;2024-01-10T01:48:44;33.20;;;11.48;;
80541;SDS011;69870;51.460;8.842;2024-01-10T01:51:12;26.02;;;9.35;;
80541;SDS011;69870;51.460;8.842;2024-01-10T01:53:40;31.92;;;11.75;;
80541;SDS011;69870;51.460;8.842;2024-01-10T01:56:10;32.60;;;11.95;;
80541;SDS011;69870;51.460;8.842;2024-01-10T01:58:38;30.73;;;10.30;;
80541;SDS011;69870;51.460;8.842;2024-01-10T02:01:06;36.42;;;10.98;;
80541;SDS011;69870;51.460;8.842;2024-01-10T02:03:33;24.05;;;9.30;;
80541;SDS011;69870;51.460;8.842;2024-01-10T02:06:01;30.50;;;10.18;;
80541;SDS011;69870;51.460;8.842;2024-01-10T02:08:29;45.30;;;11.60;;
80541;SDS011;69870;51.460;8.842;2024-01-10T02:10:56;27.27;;;10.32;;
80541;SDS011;69870;51.460;8.842;2024-01-10T02:13:22;30.85;;;10.35;;
80541;SDS011;69870;51.460;8.842;2024-01-10T02:15:49;34.38;;;11.25;;
80541;SDS011;69870;51.460;8.842;2024-01-10T02:18:16;37.88;;;12.30;;
80541;SDS011;69870;51.460;8.842;2024-01-10T02:20:43;30.40;;;11.38;;
80541;SDS011;69870;51.460;8.842;2024-01-10T02:23:11;34.70;;;10.70;;
80541;SDS011;69870;51.460;8.842;2024-01-10T02:25:39;34.50;;;12.05;;
80541;SDS011;69870;51.460;8.842;2024-01-10T02:28:06;34.40;;;11.13;;
80541;SDS011;69870;51.460;8.842;2024-01-10T02:30:34;39.55;;;11.45;;
80541;SDS011;69870;51.460;8.842;2024-01-10T02:33:00;33.67;;;11.13;;
80541;SDS011;69870;51.460;8.842;2024-01-10T02:35:27;35.05;;;11.65;;
80541;SDS011;69870;51.460;8.842;2024-01-10T02:37:54;38.45;;;11.43;;
80541;SDS011;69870;51.460;8.842;2024-01-10T02:40:21;28.90;;;10.73;;
80541;SDS011;69870;51.460;8.842;2024-01-10T02:42:49;33.35;;;11.57;;
80541;SDS011;69870;51.460;8.842;2024-01-10T02:45:16;33.85;;;11.30;;
80541;SDS011;69870;51.460;8.842;2024-01-10T02:47:44;37.13;;;12.07;;
80541;SDS011;69870;51.460;8.842;2024-01-10T02:50:11;37.38;;;11.18;;
80541;SDS011;69870;51.460;8.842;2024-01-10T02:52:37;27.08;;;9.95;;
80541;SDS011;69870;51.460;8.842;2024-01-10T02:55:04;32.95;;;11.02;;
80541;SDS011;69870;51.460;8.842;2024-01-10T02:57:31;36.67;;;11.63;;
80541;SDS011;69870;51.460;8.842;2024-01-10T02:59:59;32.63;;;11.73;;
80541;SDS011;69870;51.460;8.842;2024-01-10T03:02:26;34.58;;;12.02;;
80541;SDS011;69870;51.460;8.842;2024-01-10T03:04:52;30.92;;;12.40;;
80541;SDS011;69870;51.460;8.842;2024-01-10T03:07:19;29.35;;;10.93;;
80541;SDS011;69870;51.460;8.842;2024-01-10T03:09:46;34.20;;;13.23;;
80541;SDS011;69870;51.460;8.842;2024-01-10T03:12:12;35.88;;;13.82;;
80541;SDS011;69870;51.460;8.842;2024-01-10T03:14:39;40.80;;;12.02;;
80541;SDS011;69870;51.460;8.842;2024-01-10T03:17:07;37.20;;;11.15;;
80541;SDS011;69870;51.460;8.842;2024-01-10T03:19:33;42.25;;;13.63;;
80541;SDS011;69870;51.460;8.842;2024-01-10T03:22:02;40.30;;;12.50;;
80541;SDS011;69870;51.460;8.842;2024-01-10T03:24:29;36.90;;;11.75;;
80541;SDS011;69870;51.460;8.842;2024-01-10T03:26:55;35.90;;;13.60;;
80541;SDS011;69870;51.460;8.842;2024-01-10T03:29:22;32.25;;;11.63;;
80541;SDS011;69870;51.460;8.842;2024-01-10T03:31:48;34.17;;;13.07;;
80541;SDS011;69870;51.460;8.842;2024-01-10T03:34:16;39.20;;;11.25;;
80541;SDS011;69870;51.460;8.842;2024-01-10T03:36:43;33.63;;;12.23;;
80541;SDS011;69870;51.460;8.842;2024-01-10T03:39:09;34.47;;;10.45;;
80541;SDS011;69870;51.460;8.842;2024-01-10T03:41:36;35.70;;;12.32;;
80541;SDS011;69870;51.460;8.842;2024-01-10T03:44:03;33.05;;;11.57;;
80541;SDS011;69870;51.460;8.842;2024-01-10T03:46:30;39.35;;;11.90;;
80541;SDS011;69870;51.460;8.842;2024-01-10T03:48:57;39.92;;;12.68;;
80541;SDS011;69870;51.460;8.842;2024-01-10T03:51:24;45.22;;;13.90;;
80541;SDS011;69870;51.460;8.842;2024-01-10T03:53:51;41.67;;;13.23;;
80541;SDS011;69870;51.460;8.842;2024-01-10T03:56:20;37.65;;;13.40;;
80541;SDS011;69870;51.460;8.842;2024-01-10T03:58:46;35.63;;;12.90;;
80541;SDS011;69870;51.460;8.842;2024-01-10T04:01:14;45.10;;;17.85;;
80541;SDS011;69870;51.460;8.842;2024-01-10T04:03:41;54.50;;;20.88;;
80541;SDS011;69870;51.460;8.842;2024-01-10T04:06:07;65.15;;;29.00;;
80541;SDS011;69870;51.460;8.842;2024-01-10T04:08:35;73.22;;;33.47;;
80541;SDS011;69870;51.460;8.842;2024-01-10T04:11:03;72.57;;;34.38;;
80541;SDS011;69870;51.460;8.842;2024-01-10T04:13:29;78.95;;;35.58;;
80541;SDS011;69870;51.460;8.842;2024-01-10T04:15:56;61.20;;;27.73;;
80541;SDS011;69870;51.460;8.842;2024-01-10T04:18:22;54.45;;;24.58;;
80541;SDS011;69870;51.460;8.842;2024-01-10T04:20:49;54.47;;;20.50;;
80541;SDS011;69870;51.460;8.842;2024-01-10T04:23:16;56.30;;;20.90;;
80541;SDS011;69870;51.460;8.842;2024-01-10T04:25:44;51.25;;;21.13;;
80541;SDS011;69870;51.460;8.842;2024-01-10T04:28:10;46.05;;;18.38;;
80541;SDS011;69870;51.460;8.842;2024-01-10T04:30:37;53.13;;;18.88;;
80541;SDS011;69870;51.460;8.842;2024-01-10T04:33:04;51.03;;;19.15;;
80541;SDS011;69870;51.460;8.842;2024-01-10T04:35:30;60.28;;;20.17;;
80541;SDS011;69870;51.460;8.842;2024-01-10T04:37:57;58.38;;;20.33;;
80541;SDS011;69870;51.460;8.842;2024-01-10T04:40:24;44.38;;;17.98;;
80541;SDS011;69870;51.460;8.842;2024-01-10T04:42:52;58.65;;;21.00;;
80541;SDS011;69870;51.460;8.842;2024-01-10T04:45:18;51.22;;;20.80;;
80541;SDS011;69870;51.460;8.842;2024-01-10T04:47:45;56.30;;;21.52;;
80541;SDS011;69870;51.460;8.842;2024-01-10T04:50:11;42.10;;;18.33;;
80541;SDS011;69870;51.460;8.842;2024-01-10T04:52:38;42.03;;;16.30;;
80541;SDS011;69870;51.460;8.842;2024-01-10T04:55:05;51.45;;;20.35;;
80541;SDS011;69870;51.460;8.842;2024-01-10T04:57:33;47.90;;;17.70;;
80541;SDS011;69870;51.460;8.842;2024-01-10T05:00:01;48.65;;;17.75;;
80541;SDS011;69870;51.460;8.842;2024-01-10T05:02:28;60.53;;;19.55;;
80541;SDS011;69870;51.460;8.842;2024-01-10T05:04:54;60.45;;;20.08;;
80541;SDS011;69870;51.460;8.842;2024-01-10T05:07:21;62.83;;;18.45;;
80541;SDS011;69870;51.460;8.842;2024-01-10T05:09:47;62.42;;;20.55;;
80541;SDS011;69870;51.460;8.842;2024-01-10T05:12:14;56.00;;;21.75;;
80541;SDS011;69870;51.460;8.842;2024-01-10T05:14:40;61.47;;;20.38;;
80541;SDS011;69870;51.460;8.842;2024-01-10T05:17:08;51.55;;;17.13;;
80541;SDS011;69870;51.460;8.842;2024-01-10T05:19:35;48.65;;;17.65;;
80541;SDS011;69870;51.460;8.842;2024-01-10T05:22:02;47.75;;;17.10;;
80541;SDS011;69870;51.460;8.842;2024-01-10T05:24:29;47.00;;;17.17;;
80541;SDS011;69870;51.460;8.842;2024-01-10T05:26:56;56.75;;;18.98;;
80541;SDS011;69870;51.460;8.842;2024-01-10T05:29:22;58.40;;;20.23;;
80541;SDS011;69870;51.460;8.842;2024-01-10T05:31:49;56.35;;;17.33;;
80541;SDS011;69870;51.460;8.842;2024-01-10T05:34:17;54.42;;;17.98;;
80541;SDS011;69870;51.460;8.842;2024-01-10T05:36:44;44.60;;;15.55;;
80541;SDS011;69870;51.460;8.842;2024-01-10T05:39:11;47.83;;;17.25;;
80541;SDS011;69870;51.460;8.842;2024-01-10T05:41:41;51.67;;;17.58;;
80541;SDS011;69870;51.460;8.842;2024-01-10T05:44:08;46.45;;;15.77;;
80541;SDS011;69870;51.460;8.842;2024-01-10T05:46:35;59.17;;;20.00;;
80541;SDS011;69870;51.460;8.842;2024-01-10T05:49:02;45.47;;;18.08;;
80541;SDS011;69870;51.460;8.842;2024-01-10T05:51:30;49.80;;;17.30;;
80541;SDS011;69870;51.460;8.842;2024-01-10T05:53:57;52.40;;;18.75;;
80541;SDS011;69870;51.460;8.842;2024-01-10T05:56:24;45.00;;;17.35;;
80541;SDS011;69870;51.460;8.842;2024-01-10T05:58:52;52.67;;;17.00;;
80541;SDS011;69870;51.460;8.842;2024-01-10T06:01:18;52.92;;;17.88;;
80541;SDS011;69870;51.460;8.842;2024-01-10T06:03:45;57.88;;;17.90;;
80541;SDS011;69870;51.460;8.842;2024-01-10T06:06:12;53.45;;;19.67;;
80541;SDS011;69870;51.460;8.842;2024-01-10T06:08:39;56.97;;;18.92;;
80541;SDS011;69870;51.460;8.842;2024-01-10T06:11:06;58.05;;;19.42;;
80541;SDS011;69870;51.460;8.842;2024-01-10T06:13:34;60.88;;;18.92;;
80541;SDS011;69870;51.460;8.842;2024-01-10T06:16:01;55.10;;;19.73;;
80541;SDS011;69870;51.460;8.842;2024-01-10T06:18:28;56.08;;;18.63;;
80541;SDS011;69870;51.460;8.842;2024-01-10T06:20:55;46.05;;;18.48;;
80541;SDS011;69870;51.460;8.842;2024-01-10T06:23:22;64.53;;;21.58;;
80541;SDS011;69870;51.460;8.842;2024-01-10T06:25:50;65.32;;;20.13;;
80541;SDS011;69870;51.460;8.842;2024-01-10T06:28:18;61.75;;;19.77;;
80541;SDS011;69870;51.460;8.842;2024-01-10T06:30:44;63.03;;;22.45;;
80541;SDS011;69870;51.460;8.842;2024-01-10T06:33:11;63.95;;;19.50;;
80541;SDS011;69870;51.460;8.842;2024-01-10T06:35:39;67.60;;;20.80;;
80541;SDS011;69870;51.460;8.842;2024-01-10T06:38:06;61.80;;;20.85;;
80541;SDS011;69870;51.460;8.842;2024-01-10T06:40:33;69.05;;;23.65;;
80541;SDS011;69870;51.460;8.842;2024-01-10T06:43:01;59.15;;;21.70;;
80541;SDS011;69870;51.460;8.842;2024-01-10T06:45:27;66.60;;;22.60;;
80541;SDS011;69870;51.460;8.842;2024-01-10T06:47:54;61.55;;;20.80;;
80541;SDS011;69870;51.460;8.842;2024-01-10T06:50:21;57.13;;;21.17;;
80541;SDS011;69870;51.460;8.842;2024-01-10T06:52:49;66.90;;;23.45;;
80541;SDS011;69870;51.460;8.842;2024-01-10T06:55:15;73.55;;;24.67;;
80541;SDS011;69870;51.460;8.842;2024-01-10T06:57:43;64.25;;;21.80;;
80541;SDS011;69870;51.460;8.842;2024-01-10T07:00:13;68.18;;;22.27;;
80541;SDS011;69870;51.460;8.842;2024-01-10T07:02:42;64.43;;;21.48;;
80541;SDS011;69870;51.460;8.842;2024-01-10T07:05:09;74.28;;;23.35;;
80541;SDS011;69870;51.460;8.842;2024-01-10T07:07:36;67.35;;;24.58;;
80541;SDS011;69870;51.460;8.842;2024-01-10T07:10:02;65.93;;;23.08;;
80541;SDS011;69870;51.460;8.842;2024-01-10T07:12:30;96.85;;;31.33;;
80541;SDS011;69870;51.460;8.842;2024-01-10T07:14:56;99.15;;;28.50;;
80541;SDS011;69870;51.460;8.842;2024-01-10T07:17:24;95.20;;;33.72;;
80541;SDS011;69870;51.460;8.842;2024-01-10T07:19:51;69.88;;;26.50;;
80541;SDS011;69870;51.460;8.842;2024-01-10T07:22:17;62.45;;;19.63;;
80541;SDS011;69870;51.460;8.842;2024-01-10T07:24:44;64.25;;;20.52;;
80541;SDS011;69870;51.460;8.842;2024-01-10T07:27:11;61.05;;;20.67;;
80541;SDS011;69870;51.460;8.842;2024-01-10T07:29:39;58.63;;;21.38;;
80541;SDS011;69870;51.460;8.842;2024-01-10T07:32:06;57.50;;;19.70;;
80541;SDS011;69870;51.460;8.842;2024-01-10T07:34:37;62.13;;;24.02;;
80541;SDS011;69870;51.460;8.842;2024-01-10T07:37:04;66.03;;;22.10;;
80541;SDS011;69870;51.460;8.842;2024-01-10T07:39:31;59.03;;;21.75;;
80541;SDS011;69870;51.460;8.842;2024-01-10T07:41:57;65.78;;;22.27;;
80541;SDS011;69870;51.460;8.842;2024-01-10T07:44:27;75.57;;;21.50;;
80541;SDS011;69870;51.460;8.842;2024-01-10T07:46:54;56.92;;;20.90;;
80541;SDS011;69870;51.460;8.842;2024-01-10T07:49:20;60.03;;;21.35;;
80541;SDS011;69870;51.460;8.842;2024-01-10T07:51:50;67.63;;;22.75;;
80541;SDS011;69870;51.460;8.842;2024-01-10T07:54:16;73.35;;;23.73;;
80541;SDS011;69870;51.460;8.842;2024-01-10T07:56:43;63.67;;;23.65;;
80541;SDS011;69870;51.460;8.842;2024-01-10T07:59:09;69.43;;;23.15;;
80541;SDS011;69870;51.460;8.842;2024-01-10T08:01:39;66.85;;;24.17;;
80541;SDS011;69870;51.460;8.842;2024-01-10T08:04:06;63.80;;;22.60;;
80541;SDS011;69870;51.460;8.842;2024-01-10T08:06:32;74.55;;;24.30;;
80541;SDS011;69870;51.460;8.842;2024-01-10T08:09:01;75.00;;;27.15;;
80541;SDS011;69870;51.460;8.842;2024-01-10T08:11:29;90.68;;;30.05;;
80541;SDS011;69870;51.460;8.842;2024-01-10T08:13:56;87.80;;;29.90;;
80541;SDS011;69870;51.460;8.842;2024-01-10T08:16:23;82.13;;;26.80;;
80541;SDS011;69870;51.460;8.842;2024-01-10T08:18:49;94.07;;;35.33;;
80541;SDS011;69870;51.460;8.842;2024-01-10T08:21:16;86.97;;;31.17;;
80541;SDS011;69870;51.460;8.842;2024-01-10T08:23:43;79.72;;;30.33;;
80541;SDS011;69870;51.460;8.842;2024-01-10T08:26:10;83.22;;;30.77;;
80541;SDS011;69870;51.460;8.842;2024-01-10T08:28:37;82.75;;;28.95;;
80541;SDS011;69870;51.460;8.842;2024-01-10T08:31:04;84.10;;;29.67;;
80541;SDS011;69870;51.460;8.842;2024-01-10T08:33:31;82.60;;;26.83;;
80541;SDS011;69870;51.460;8.842;2024-01-10T08:35:57;81.35;;;27.58;;
80541;SDS011;69870;51.460;8.842;2024-01-10T08:38:24;86.28;;;28.95;;
80541;SDS011;69870;51.460;8.842;2024-01-10T08:40:51;70.60;;;27.80;;
80541;SDS011;69870;51.460;8.842;2024-01-10T08:43:19;91.78;;;33.17;;
80541;SDS011;69870;51.460;8.842;2024-01-10T08:45:46;94.50;;;32.13;;
80541;SDS011;69870;51.460;8.842;2024-01-10T08:48:12;106.53;;;38.22;;
80541;SDS011;69870;51.460;8.842;2024-01-10T08:50:39;115.78;;;42.95;;
80541;SDS011;69870;51.460;8.842;2024-01-10T08:53:06;99.85;;;39.28;;
80541;SDS011;69870;51.460;8.842;2024-01-10T08:55:33;101.55;;;40.83;;
80541;SDS011;69870;51.460;8.842;2024-01-10T08:58:02;91.10;;;36.45;;
80541;SDS011;69870;51.460;8.842;2024-01-10T09:00:30;89.00;;;32.38;;
80541;SDS011;69870;51.460;8.842;2024-01-10T09:02:57;87.13;;;32.75;;
80541;SDS011;69870;51.460;8.842;2024-01-10T09:05:23;98.22;;;31.90;;
80541;SDS011;69870;51.460;8.842;2024-01-10T09:07:50;81.15;;;30.73;;
80541;SDS011;69870;51.460;8.842;2024-01-10T09:10:18;82.05;;;32.35;;
80541;SDS011;69870;51.460;8.842;2024-01-10T09:12:46;81.63;;;32.28;;
80541;SDS011;69870;51.460;8.842;2024-01-10T09:15:13;93.32;;;34.03;;
80541;SDS011;69870;51.460;8.842;2024-01-10T09:17:42;82.50;;;30.95;;
80541;SDS011;69870;51.460;8.842;2024-01-10T09:20:09;80.93;;;30.98;;
80541;SDS011;69870;51.460;8.842;2024-01-10T09:22:36;79.97;;;29.52;;
80541;SDS011;69870;51.460;8.842;2024-01-10T09:25:03;84.10;;;31.15;;
80541;SDS011;69870;51.460;8.842;2024-01-10T09:27:30;82.28;;;29.70;;
80541;SDS011;69870;51.460;8.842;2024-01-10T09:29:58;83.90;;;31.17;;
80541;SDS011;69870;51.460;8.842;2024-01-10T09:32:26;69.40;;;27.13;;
80541;SDS011;69870;51.460;8.842;2024-01-10T09:34:53;67.93;;;27.63;;
80541;SDS011;69870;51.460;8.842;2024-01-10T09:37:20;84.07;;;28.70;;
80541;SDS011;69870;51.460;8.842;2024-01-10T09:39:47;70.50;;;28.25;;
80541;SDS011;69870;51.460;8.842;2024-01-10T09:42:14;81.25;;;27.95;;
80541;SDS011;69870;51.460;8.842;2024-01-10T09:44:41;66.03;;;25.23;;
80541;SDS011;69870;51.460;8.842;2024-01-10T09:47:07;69.78;;;26.63;;
80541;SDS011;69870;51.460;8.842;2024-01-10T09:49:35;71.13;;;26.50;;
80541;SDS011;69870;51.460;8.842;2024-01-10T09:52:03;81.30;;;30.50;;
80541;SDS011;69870;51.460;8.842;2024-01-10T09:54:31;82.88;;;27.90;;
80541;SDS011;69870;51.460;8.842;2024-01-10T09:56:58;69.13;;;28.52;;
80541;SDS011;69870;51.460;8.842;2024-01-10T09:59:24;80.43;;;27.70;;
80541;SDS011;69870;51.460;8.842;2024-01-10T10:01:51;75.07;;;27.80;;
80541;SDS011;69870;51.460;8.842;2024-01-10T10:04:18;69.68;;;25.90;;
80541;SDS011;69870;51.460;8.842;2024-01-10T10:06:46;75.22;;;27.52;;
80541;SDS011;69870;51.460;8.842;2024-01-10T10:09:14;71.28;;;26.52;;
80541;SDS011;69870;51.460;8.842;2024-01-10T10:11:42;82.90;;;28.60;;
80541;SDS011;69870;51.460;8.842;2024-01-10T10:14:15;80.15;;;28.23;;
80541;SDS011;69870;51.460;8.842;2024-01-10T10:16:42;66.43;;;26.92;;
80541;SDS011;69870;51.460;8.842;2024-01-10T10:19:08;75.13;;;26.20;;
80541;SDS011;69870;51.460;8.842;2024-01-10T10:21:36;78.75;;;26.40;;
80541;SDS011;69870;51.460;8.842;2024-01-10T10:24:04;68.03;;;25.80;;
80541;SDS011;69870;51.460;8.842;2024-01-10T10:29:01;68.25;;;25.45;;
80541;SDS011;69870;51.460;8.842;2024-01-10T10:31:28;69.40;;;25.58;;
80541;SDS011;69870;51.460;8.842;2024-01-10T10:33:56;75.97;;;26.98;;
80541;SDS011;69870;51.460;8.842;2024-01-10T10:36:26;81.72;;;26.08;;
80541;SDS011;69870;51.460;8.842;2024-01-10T10:38:52;69.93;;;26.15;;
80541;SDS011;69870;51.460;8.842;2024-01-10T10:41:19;68.70;;;27.08;;
80541;SDS011;69870;51.460;8.842;2024-01-10T10:43:47;68.18;;;26.83;;
80541;SDS011;69870;51.460;8.842;2024-01-10T10:46:16;68.60;;;26.00;;
80541;SDS011;69870;51.460;8.842;2024-01-10T10:48:42;76.18;;;28.65;;
80541;SDS011;69870;51.460;8.842;2024-01-10T10:51:10;72.05;;;26.45;;
80541;SDS011;69870;51.460;8.842;2024-01-10T10:53:38;74.05;;;27.63;;
80541;SDS011;69870;51.460;8.842;2024-01-10T10:56:06;74.13;;;28.80;;
80541;SDS011;69870;51.460;8.842;2024-01-10T10:58:34;77.88;;;28.88;;
80541;SDS011;69870;51.460;8.842;2024-01-10T11:01:05;73.38;;;27.83;;
80541;SDS011;69870;51.460;8.842;2024-01-10T11:03:33;71.60;;;26.35;;
80541;SDS011;69870;51.460;8.842;2024-01-10T11:06:02;74.93;;;25.92;;
80541;SDS011;69870;51.460;8.842;2024-01-10T11:08:29;70.85;;;26.23;;
80541;SDS011;69870;51.460;8.842;2024-01-10T11:11:00;66.53;;;25.90;;
80541;SDS011;69870;51.460;8.842;2024-01-10T11:13:33;73.60;;;27.05;;
80541;SDS011;69870;51.460;8.842;2024-01-10T11:16:18;63.45;;;26.63;;
80541;SDS011;69870;51.460;8.842;2024-01-10T11:22:07;67.28;;;24.67;;
80541;SDS011;69870;51.460;8.842;2024-01-10T11:24:46;68.35;;;27.02;;
80541;SDS011;69870;51.460;8.842;2024-01-10T11:27:14;67.35;;;25.83;;
80541;SDS011;69870;51.460;8.842;2024-01-10T11:29:41;76.18;;;26.50;;
80541;SDS011;69870;51.460;8.842;2024-01-10T11:32:14;66.93;;;26.63;;
80541;SDS011;69870;51.460;8.842;2024-01-10T11:34:48;64.32;;;23.25;;
80541;SDS011;69870;51.460;8.842;2024-01-10T11:37:16;60.80;;;26.10;;
80541;SDS011;69870;51.460;8.842;2024-01-10T11:39:42;69.85;;;26.15;;
80541;SDS011;69870;51.460;8.842;2024-01-10T11:42:11;59.33;;;23.13;;
80541;SDS011;69870;51.460;8.842;2024-01-10T11:44:47;64.05;;;25.75;;
80541;SDS011;69870;51.460;8.842;2024-01-10T11:47:16;61.95;;;23.25;;
80541;SDS011;69870;51.460;8.842;2024-01-10T11:49:53;61.85;;;22.60;;
80541;SDS011;69870;51.460;8.842;2024-01-10T11:52:21;66.43;;;25.10;;
80541;SDS011;69870;51.460;8.842;2024-01-10T11:54:48;67.03;;;24.50;;
80541;SDS011;69870;51.460;8.842;2024-01-10T11:57:19;64.75;;;25.02;;
80541;SDS011;69870;51.460;8.842;2024-01-10T11:59:47;60.60;;;23.17;;
80541;SDS011;69870;51.460;8.842;2024-01-10T12:02:17;57.80;;;22.65;;
80541;SDS011;69870;51.460;8.842;2024-01-10T12:04:44;63.35;;;24.25;;
80541;SDS011;69870;51.460;8.842;2024-01-10T12:07:11;67.32;;;23.75;;
80541;SDS011;69870;51.460;8.842;2024-01-10T12:09:38;71.65;;;28.15;;
80541;SDS011;69870;51.460;8.842;2024-01-10T12:12:05;54.53;;;22.55;;
80541;SDS011;69870;51.460;8.842;2024-01-10T12:14:33;59.03;;;23.33;;
80541;SDS011;69870;51.460;8.842;2024-01-10T12:17:00;57.90;;;22.25;;
80541;SDS011;69870;51.460;8.842;2024-01-10T12:19:29;53.35;;;22.40;;
80541;SDS011;69870;51.460;8.842;2024-01-10T12:21:55;54.40;;;21.90;;
80541;SDS011;69870;51.460;8.842;2024-01-10T12:24:22;56.78;;;22.33;;
80541;SDS011;69870;51.460;8.842;2024-01-10T12:26:49;54.08;;;22.95;;
80541;SDS011;69870;51.460;8.842;2024-01-10T12:29:17;60.78;;;24.15;;
80541;SDS011;69870;51.460;8.842;2024-01-10T12:31:45;57.65;;;25.08;;
80541;SDS011;69870;51.460;8.842;2024-01-10T12:34:11;54.83;;;22.65;;
80541;SDS011;69870;51.460;8.842;2024-01-10T12:36:40;58.92;;;22.63;;
80541;SDS011;69870;51.460;8.842;2024-01-10T12:39:07;53.65;;;22.55;;
80541;SDS011;69870;51.460;8.842;2024-01-10T12:41:33;56.22;;;21.90;;
80541;SDS011;69870;51.460;8.842;2024-01-10T12:44:01;48.80;;;20.73;;
80541;SDS011;69870;51.460;8.842;2024-01-10T12:46:31;50.45;;;20.92;;
80541;SDS011;69870;51.460;8.842;2024-01-10T12:48:58;45.65;;;20.13;;
80541;SDS011;69870;51.460;8.842;2024-01-10T12:51:26;55.85;;;21.45;;
80541;SDS011;69870;51.460;8.842;2024-01-10T12:53:56;54.08;;;20.20;;
80541;SDS011;69870;51.460;8.842;2024-01-10T12:56:24;50.20;;;19.30;;
80541;SDS011;69870;51.460;8.842;2024-01-10T12:58:52;62.58;;;23.38;;
80541;SDS011;69870;51.460;8.842;2024-01-10T13:01:20;53.50;;;21.90;;
80541;SDS011;69870;51.460;8.842;2024-01-10T13:03:46;60.38;;;22.10;;
80541;SDS011;69870;51.460;8.842;2024-01-10T13:06:14;59.35;;;21.73;;
80541;SDS011;69870;51.460;8.842;2024-01-10T13:08:41;56.97;;;21.20;;
80541;SDS011;69870;51.460;8.842;2024-01-10T13:11:09;57.17;;;21.50;;
80541;SDS011;69870;51.460;8.842;2024-01-10T13:13:36;65.22;;;22.55;;
80541;SDS011;69870;51.460;8.842;2024-01-10T13:16:03;57.63;;;22.23;;
80541;SDS011;69870;51.460;8.842;2024-01-10T13:18:30;57.80;;;23.17;;
80541;SDS011;69870;51.460;8.842;2024-01-10T13:20:57;64.80;;;23.00;;
80541;SDS011;69870;51.460;8.842;2024-01-10T13:23:23;68.00;;;24.73;;
80541;SDS011;69870;51.460;8.842;2024-01-10T13:25:50;62.35;;;25.38;;
80541;SDS011;69870;51.460;8.842;2024-01-10T13:28:19;55.55;;;23.92;;
80541;SDS011;69870;51.460;8.842;2024-01-10T13:30:45;58.35;;;23.65;;
80541;SDS011;69870;51.460;8.842;2024-01-10T13:33:12;59.42;;;21.80;;
80541;SDS011;69870;51.460;8.842;2024-01-10T13:35:39;60.15;;;23.48;;
80541;SDS011;69870;51.460;8.842;2024-01-10T13:38:05;60.55;;;23.75;;
80541;SDS011;69870;51.460;8.842;2024-01-10T13:40:32;60.42;;;23.63;;
80541;SDS011;69870;51.460;8.842;2024-01-10T13:42:59;57.90;;;22.95;;
80541;SDS011;69870;51.460;8.842;2024-01-10T13:45:30;69.40;;;25.45;;
80541;SDS011;69870;51.460;8.842;2024-01-10T13:48:24;60.45;;;24.08;;
80541;SDS011;69870;51.460;8.842;2024-01-10T13:50:55;55.40;;;22.55;;
80541;SDS011;69870;51.460;8.842;2024-01-10T13:53:28;69.05;;;25.10;;
80541;SDS011;69870;51.460;8.842;2024-01-10T13:56:13;65.03;;;22.70;;
80541;SDS011;69870;51.460;8.842;2024-01-10T13:59:18;61.35;;;23.83;;
80541;SDS011;69870;51.460;8.842;2024-01-10T14:02:07;65.97;;;22.70;;
80541;SDS011;69870;51.460;8.842;2024-01-10T14:04:41;65.03;;;22.85;;
80541;SDS011;69870;51.460;8.842;2024-01-10T14:07:17;69.50;;;22.33;;
80541;SDS011;69870;51.460;8.842;2024-01-10T14:12:42;64.43;;;24.17;;
80541;SDS011;69870;51.460;8.842;2024-01-10T14:15:47;60.00;;;21.75;;
80541;SDS011;69870;51.460;8.842;2024-01-10T14:18:46;61.70;;;22.20;;
80541;SDS011;69870;51.460;8.842;2024-01-10T14:21:24;55.95;;;21.73;;
80541;SDS011;69870;51.460;8.842;2024-01-10T14:24:22;58.28;;;22.65;;
80541;SDS011;69870;51.460;8.842;2024-01-10T14:27:42;60.03;;;20.92;;
80541;SDS011;69870;51.460;8.842;2024-01-10T14:30:27;58.65;;;21.25;;
80541;SDS011;69870;51.460;8.842;2024-01-10T14:33:06;55.17;;;21.00;;
80541;SDS011;69870;51.460;8.842;2024-01-10T14:36:30;58.95;;;22.85;;